createdAt,value
2023-09-23T00:01:51.484Z,23.52
2023-09-23T00:04:20.203Z,23.41
2023-09-23T00:06:50.819Z,23.44
2023-09-23T00:09:20.008Z,23.51
2023-09-23T00:11:48.281Z,23.54
2023-09-23T00:14:17.066Z,23.37
2023-09-23T00:16:48.345Z,23.52
2023-09-23T00:19:17.064Z,22.31
2023-09-23T00:21:45.413Z,21.42
2023-09-23T00:24:14.977Z,21.00
2023-09-23T00:26:43.435Z,20.53
2023-09-23T00:29:12.728Z,20.45
2023-09-23T00:31:41.637Z,20.07
2023-09-23T00:34:11.564Z,20.48
2023-09-23T00:36:39.843Z,19.70
2023-09-23T00:39:11.123Z,19.71
2023-09-23T00:41:39.355Z,19.60
2023-09-23T00:44:08.230Z,19.58
2023-09-23T00:46:37.735Z,19.63
2023-09-23T00:49:09.306Z,19.36
2023-09-23T00:51:39.201Z,20.00
2023-09-23T00:54:15.129Z,19.74
2023-09-23T00:56:43.549Z,19.41
2023-09-23T00:59:12.442Z,19.54
2023-09-23T01:01:42.783Z,19.38
2023-09-23T01:04:15.758Z,19.50
2023-09-23T01:06:45.526Z,20.09
2023-09-23T01:09:22.224Z,19.71
2023-09-23T01:11:51.992Z,19.63
2023-09-23T01:14:22.662Z,19.75
2023-09-23T01:16:51.105Z,19.89
2023-09-23T01:19:19.961Z,19.79
2023-09-23T01:21:50.834Z,20.49
2023-09-23T01:24:21.062Z,20.57
2023-09-23T01:26:52.810Z,20.23
2023-09-23T01:29:23.584Z,19.79
2023-09-23T01:32:08.178Z,20.35
2023-09-23T01:34:36.595Z,19.33
2023-09-23T01:37:06.213Z,19.26
2023-09-23T01:39:40.432Z,19.80
2023-09-23T01:42:08.940Z,19.19
2023-09-23T01:44:37.798Z,19.18
2023-09-23T01:47:06.072Z,19.12
2023-09-23T01:49:35.109Z,19.18
2023-09-23T01:52:03.971Z,19.15
2023-09-23T01:54:32.981Z,19.02
2023-09-23T01:57:04.098Z,19.72
2023-09-23T01:59:33.611Z,19.37
2023-09-23T02:02:04.880Z,19.21
2023-09-23T02:04:35.025Z,19.12
2023-09-23T02:07:03.525Z,19.14
2023-09-23T02:09:32.703Z,19.29
2023-09-23T02:12:02.511Z,19.89
2023-09-23T02:14:31.304Z,19.14
2023-09-23T02:16:59.835Z,19.29
2023-09-23T02:19:28.997Z,18.96
2023-09-23T02:21:57.218Z,19.07
2023-09-23T02:24:25.803Z,18.94
2023-09-23T02:26:54.534Z,18.97
2023-09-23T02:29:24.419Z,19.21
2023-09-23T02:31:52.720Z,18.65
2023-09-23T02:34:21.678Z,18.54
2023-09-23T02:36:52.201Z,18.55
2023-09-23T02:39:21.857Z,18.73
2023-09-23T02:41:50.972Z,19.02
2023-09-23T02:44:21.192Z,19.13
2023-09-23T02:46:53.762Z,19.29
2023-09-23T02:49:22.490Z,18.70
2023-09-23T02:51:51.080Z,18.82
2023-09-23T02:54:20.071Z,18.72
2023-09-23T02:56:49.176Z,18.82
2023-09-23T02:59:23.018Z,18.79
2023-09-23T03:01:54.861Z,19.46
2023-09-23T03:04:25.157Z,18.94
2023-09-23T03:06:57.660Z,19.33
2023-09-23T03:09:27.565Z,18.96
2023-09-23T03:11:57.167Z,18.77
2023-09-23T03:14:29.506Z,19.05
2023-09-23T03:17:00.908Z,19.41
2023-09-23T03:19:30.145Z,18.67
2023-09-23T03:21:58.389Z,18.74
2023-09-23T03:24:27.537Z,18.88
2023-09-23T03:26:56.730Z,18.88
2023-09-23T03:29:26.377Z,18.64
2023-09-23T03:31:54.743Z,18.81
2023-09-23T03:34:24.899Z,19.41
2023-09-23T03:36:54.905Z,18.80
2023-09-23T03:39:23.971Z,18.72
2023-09-23T03:41:52.210Z,18.54
2023-09-23T03:44:20.849Z,18.54
2023-09-23T03:46:49.409Z,18.53
2023-09-23T03:49:19.089Z,18.68
2023-09-23T03:51:48.753Z,19.14
2023-09-23T03:54:18.933Z,18.53
2023-09-23T03:56:47.635Z,18.62
2023-09-23T03:59:16.142Z,18.64
2023-09-23T04:01:45.427Z,18.67
2023-09-23T04:04:14.021Z,18.62
2023-09-23T04:06:42.160Z,18.66
2023-09-23T04:09:14.370Z,19.35
2023-09-23T04:11:42.634Z,18.62
2023-09-23T04:14:11.134Z,18.72
2023-09-23T04:16:39.485Z,18.92
2023-09-23T04:19:08.842Z,18.90
2023-09-23T04:21:37.215Z,18.98
2023-09-23T04:24:08.433Z,18.89
2023-09-23T04:26:38.122Z,19.46
2023-09-23T04:29:07.350Z,18.95
2023-09-23T04:31:35.644Z,18.70
2023-09-23T04:34:04.225Z,18.61
2023-09-23T04:36:32.916Z,18.83
2023-09-23T04:39:01.394Z,18.68
2023-09-23T04:41:29.785Z,19.03
2023-09-23T04:43:59.798Z,19.39
2023-09-23T04:46:33.723Z,18.63
2023-09-23T04:49:02.604Z,18.63
2023-09-23T04:51:30.984Z,18.72
2023-09-23T04:53:59.463Z,18.84
2023-09-23T04:56:27.690Z,18.89
2023-09-23T04:59:00.025Z,18.86
2023-09-23T05:01:30.140Z,19.53
2023-09-23T05:04:01.068Z,18.82
2023-09-23T05:06:29.374Z,18.73
2023-09-23T05:09:00.025Z,18.77
2023-09-23T05:11:28.394Z,18.78
2023-09-23T05:13:56.989Z,18.68
2023-09-23T05:16:25.437Z,18.88
2023-09-23T05:18:55.484Z,19.39
2023-09-23T05:21:23.893Z,18.90
2023-09-23T05:23:52.523Z,18.67
2023-09-23T05:26:21.082Z,18.85
2023-09-23T05:28:50.206Z,18.76
2023-09-23T05:31:19.079Z,18.87
2023-09-23T05:33:47.512Z,18.74
2023-09-23T05:36:17.519Z,19.43
2023-09-23T05:38:46.189Z,18.78
2023-09-23T05:41:14.675Z,18.85
2023-09-23T05:43:43.210Z,18.68
2023-09-23T05:46:13.010Z,18.58
2023-09-23T05:48:42.258Z,18.58
2023-09-23T05:51:10.403Z,18.56
2023-09-23T05:53:40.374Z,19.22
2023-09-23T05:56:08.654Z,18.58
2023-09-23T05:58:37.463Z,18.53
2023-09-23T06:01:06.594Z,18.74
2023-09-23T06:03:35.253Z,18.53
2023-09-23T06:06:03.999Z,18.58
2023-09-23T06:08:32.472Z,18.68
2023-09-23T06:11:06.293Z,19.33
2023-09-23T06:13:35.469Z,18.71
2023-09-23T06:16:04.924Z,19.16
2023-09-23T06:18:34.409Z,18.84
2023-09-23T06:21:03.392Z,18.98
2023-09-23T06:23:32.128Z,18.92
2023-09-23T06:26:03.641Z,19.28
2023-09-23T06:28:34.796Z,19.75
2023-09-23T06:31:04.202Z,19.07
2023-09-23T06:33:32.752Z,19.11
2023-09-23T06:36:04.382Z,19.87
2023-09-23T06:38:33.066Z,19.17
2023-09-23T06:41:01.429Z,19.14
2023-09-23T06:43:30.175Z,19.18
2023-09-23T06:46:00.686Z,19.81
2023-09-23T06:48:29.975Z,19.09
2023-09-23T06:51:01.964Z,19.75
2023-09-23T06:53:31.256Z,18.95
2023-09-23T06:56:00.116Z,18.61
2023-09-23T06:58:28.600Z,18.76
2023-09-23T07:00:56.960Z,18.85
2023-09-23T07:03:27.984Z,19.47
2023-09-23T07:05:56.447Z,18.90
2023-09-23T07:08:25.099Z,18.91
2023-09-23T07:10:53.330Z,18.97
2023-09-23T07:13:21.859Z,19.15
2023-09-23T07:15:50.059Z,19.20
2023-09-23T07:18:18.906Z,19.41
2023-09-23T07:20:49.026Z,19.90
2023-09-23T07:23:17.726Z,19.20
2023-09-23T07:25:46.931Z,19.25
2023-09-23T07:28:15.450Z,19.26
2023-09-23T07:30:43.785Z,19.21
2023-09-23T07:33:12.345Z,19.12
2023-09-23T07:35:40.545Z,19.09
2023-09-23T07:38:10.650Z,19.83
2023-09-23T07:40:40.696Z,19.80
2023-09-23T07:43:09.610Z,19.14
2023-09-23T07:45:38.007Z,19.13
2023-09-23T07:48:08.978Z,19.46
2023-09-23T07:50:37.314Z,19.37
2023-09-23T07:53:06.298Z,19.48
2023-09-23T07:55:36.178Z,19.98
2023-09-23T07:58:05.312Z,19.51
2023-09-23T08:00:33.568Z,19.10
2023-09-23T08:03:02.196Z,19.00
2023-09-23T08:05:31.100Z,19.14
2023-09-23T08:08:01.346Z,19.33
2023-09-23T08:10:29.724Z,19.37
2023-09-23T08:12:59.723Z,19.68
2023-09-23T08:15:28.081Z,19.20
2023-09-23T08:17:56.842Z,19.17
2023-09-23T08:20:27.561Z,19.06
2023-09-23T08:22:59.064Z,19.10
2023-09-23T08:25:27.956Z,19.15
2023-09-23T08:27:56.472Z,19.09
2023-09-23T08:30:26.312Z,19.62
2023-09-23T08:32:56.592Z,19.06
2023-09-23T08:35:25.012Z,18.95
2023-09-23T08:37:53.865Z,19.04
2023-09-23T08:40:22.464Z,19.14
2023-09-23T08:42:53.764Z,19.75
2023-09-23T08:45:28.599Z,19.91
2023-09-23T08:47:57.290Z,19.35
2023-09-23T08:50:26.362Z,19.33
2023-09-23T08:52:55.747Z,19.17
2023-09-23T08:55:26.048Z,19.35
2023-09-23T08:57:55.816Z,19.81
2023-09-23T09:00:26.652Z,19.91
2023-09-23T09:02:55.429Z,19.43
2023-09-23T09:05:25.067Z,19.53
2023-09-23T09:07:53.801Z,19.49
2023-09-23T09:10:22.523Z,19.45
2023-09-23T09:12:51.131Z,19.21
2023-09-23T09:15:20.199Z,19.29
2023-09-23T09:17:50.646Z,19.94
2023-09-23T09:20:19.470Z,19.46
2023-09-23T09:22:48.382Z,19.88
2023-09-23T09:25:16.659Z,20.00
2023-09-23T09:27:45.390Z,20.16
2023-09-23T09:30:14.759Z,20.22
2023-09-23T09:32:45.358Z,20.82
2023-09-23T09:35:16.692Z,21.23
2023-09-23T09:37:46.331Z,20.94
2023-09-23T09:40:18.374Z,21.43
2023-09-23T09:42:52.630Z,21.87
2023-09-23T09:45:22.568Z,21.47
2023-09-23T09:47:52.759Z,21.29
2023-09-23T09:50:24.589Z,21.73
2023-09-23T09:52:53.196Z,20.90
2023-09-23T09:55:26.267Z,21.45
2023-09-23T09:57:55.980Z,20.68
2023-09-23T10:00:29.212Z,20.69
2023-09-23T10:03:07.194Z,21.87
2023-09-23T10:05:43.895Z,21.57
2023-09-23T10:08:14.993Z,21.53
2023-09-23T10:10:47.753Z,22.04
2023-09-23T10:13:17.013Z,21.84
2023-09-23T10:15:45.434Z,21.91
2023-09-23T10:18:15.750Z,22.36
2023-09-23T10:20:50.658Z,22.76
2023-09-23T10:23:20.936Z,22.59
2023-09-23T10:25:52.694Z,22.71
2023-09-23T10:28:24.563Z,22.53
2023-09-23T10:31:00.564Z,23.27
2023-09-23T10:33:31.363Z,22.48
2023-09-23T10:36:01.439Z,22.74
2023-09-23T10:38:32.732Z,22.28
2023-09-23T10:41:00.949Z,23.29
2023-09-23T10:43:30.487Z,21.73
2023-09-23T10:46:02.857Z,21.97
2023-09-23T10:48:32.732Z,21.69
2023-09-23T10:51:02.924Z,21.83
2023-09-23T10:53:32.050Z,21.39
2023-09-23T10:56:03.200Z,21.07
2023-09-23T10:58:32.799Z,21.03
2023-09-23T11:01:01.003Z,20.69
2023-09-23T11:03:31.021Z,20.52
2023-09-23T11:05:59.479Z,20.58
2023-09-23T11:08:29.661Z,20.88
2023-09-23T11:10:59.896Z,20.66
2023-09-23T11:13:28.772Z,20.47
2023-09-23T11:15:57.954Z,20.54
2023-09-23T11:18:29.632Z,20.68
2023-09-23T11:20:58.188Z,20.02
2023-09-23T11:23:31.265Z,20.81
2023-09-23T11:26:01.770Z,19.82
2023-09-23T11:28:30.247Z,19.90
2023-09-23T11:30:59.217Z,20.04
2023-09-23T11:33:28.278Z,20.02
2023-09-23T11:35:58.634Z,19.78
2023-09-23T11:38:27.441Z,19.72
2023-09-23T11:40:58.045Z,20.18
2023-09-23T11:43:27.513Z,19.92
2023-09-23T11:45:55.913Z,20.20
2023-09-23T11:48:24.613Z,20.40
2023-09-23T11:50:53.050Z,20.27
2023-09-23T11:53:21.678Z,20.42
2023-09-23T11:55:50.654Z,20.48
2023-09-23T11:58:20.959Z,21.17
2023-09-23T12:00:50.127Z,20.98
2023-09-23T12:03:19.301Z,20.82
2023-09-23T12:05:50.616Z,20.74
2023-09-23T12:08:20.785Z,20.86
2023-09-23T12:10:49.273Z,20.96
2023-09-23T12:13:19.868Z,20.95
2023-09-23T12:15:49.381Z,21.48
2023-09-23T12:18:18.060Z,20.81
2023-09-23T12:20:46.565Z,20.98
2023-09-23T12:23:17.199Z,21.06
2023-09-23T12:25:45.434Z,21.13
2023-09-23T12:28:13.954Z,20.97
2023-09-23T12:30:42.465Z,21.04
2023-09-23T12:33:13.710Z,21.49
2023-09-23T12:35:42.026Z,22.54
2023-09-23T12:38:12.054Z,20.74
2023-09-23T12:40:40.444Z,20.95
2023-09-23T12:43:09.060Z,20.83
2023-09-23T12:45:38.121Z,20.80
2023-09-23T12:48:07.557Z,21.03
2023-09-23T12:50:37.423Z,21.37
2023-09-23T12:53:06.384Z,20.55
2023-09-23T12:55:34.836Z,20.58
2023-09-23T12:58:03.393Z,20.93
2023-09-23T13:00:31.847Z,21.02
2023-09-23T13:03:00.847Z,21.09
2023-09-23T13:05:29.287Z,20.83
2023-09-23T13:07:59.292Z,21.34
2023-09-23T13:10:27.512Z,20.77
2023-09-23T13:12:55.958Z,20.77
2023-09-23T13:15:24.271Z,20.74
2023-09-23T13:17:52.818Z,20.69
2023-09-23T13:20:21.309Z,20.91
2023-09-23T13:22:49.915Z,20.50
2023-09-23T13:25:19.689Z,21.16
2023-09-23T13:27:48.566Z,20.40
2023-09-23T13:30:17.186Z,20.65
2023-09-23T13:32:45.893Z,20.55
2023-09-23T13:35:14.476Z,20.45
2023-09-23T13:37:44.376Z,20.42
2023-09-23T13:40:13.237Z,20.57
2023-09-23T13:42:43.462Z,21.23
2023-09-23T13:45:12.606Z,20.64
2023-09-23T13:47:43.529Z,20.47
2023-09-23T13:50:11.991Z,20.36
2023-09-23T13:52:40.556Z,20.34
2023-09-23T13:55:10.581Z,20.41
2023-09-23T13:57:39.132Z,20.15
2023-09-23T14:00:10.299Z,20.62
2023-09-23T14:02:40.462Z,19.87
2023-09-23T14:05:11.150Z,20.32
2023-09-23T14:07:40.099Z,20.16
2023-09-23T14:10:20.613Z,20.32
2023-09-23T14:12:50.298Z,20.15
2023-09-23T14:15:20.408Z,20.94
2023-09-23T14:17:49.543Z,20.17
2023-09-23T14:20:18.223Z,20.04
2023-09-23T14:22:49.696Z,19.92
2023-09-23T14:25:19.598Z,19.92
2023-09-23T14:27:48.250Z,19.77
2023-09-23T14:30:16.488Z,19.72
2023-09-23T14:32:46.568Z,20.31
2023-09-23T14:35:14.907Z,19.83
2023-09-23T14:37:45.561Z,19.73
2023-09-23T14:40:14.505Z,19.70
2023-09-23T14:42:46.471Z,19.87
2023-09-23T14:45:16.244Z,19.77
2023-09-23T14:47:47.324Z,20.35
2023-09-23T14:50:15.663Z,19.85
2023-09-23T14:52:45.721Z,19.79
2023-09-23T14:55:14.115Z,19.77
2023-09-23T14:57:44.558Z,19.47
2023-09-23T15:00:15.354Z,20.04
2023-09-23T15:02:43.896Z,21.17
2023-09-23T15:05:13.728Z,20.20
2023-09-23T15:07:42.479Z,19.52
2023-09-23T15:10:12.250Z,19.79
2023-09-23T15:12:41.309Z,19.70
2023-09-23T15:15:10.423Z,19.83
2023-09-23T15:17:40.958Z,19.84
2023-09-23T15:20:12.633Z,19.87
2023-09-23T15:22:42.592Z,19.98
2023-09-23T15:25:12.726Z,19.59
2023-09-23T15:27:41.599Z,19.69
2023-09-23T15:30:11.350Z,19.24
2023-09-23T15:32:40.555Z,19.01
2023-09-23T15:35:12.830Z,19.61
2023-09-23T15:37:42.714Z,19.91
2023-09-23T15:40:12.443Z,19.62
2023-09-23T15:42:40.964Z,19.21
2023-09-23T15:45:10.310Z,19.31
2023-09-23T15:47:40.866Z,19.12
2023-09-23T15:50:10.452Z,19.37
2023-09-23T15:52:39.762Z,19.12
2023-09-23T15:55:12.166Z,19.78
2023-09-23T15:57:40.971Z,19.16
2023-09-23T16:00:10.820Z,19.58
2023-09-23T16:02:40.039Z,19.22
2023-09-23T16:05:10.143Z,19.46
2023-09-23T16:07:38.887Z,19.22
2023-09-23T16:10:11.504Z,19.21
2023-09-23T16:12:40.293Z,19.10
2023-09-23T16:15:09.449Z,19.36
2023-09-23T16:17:38.075Z,19.01
2023-09-23T16:20:07.526Z,19.22
2023-09-23T16:22:36.097Z,19.00
2023-09-23T16:25:04.570Z,18.95
2023-09-23T16:27:35.711Z,19.42
2023-09-23T16:30:04.327Z,18.96
2023-09-23T16:32:32.756Z,19.12
2023-09-23T16:35:00.971Z,18.93
2023-09-23T16:37:29.594Z,18.87
2023-09-23T16:39:57.942Z,18.82
2023-09-23T16:42:26.418Z,18.76
2023-09-23T16:44:56.090Z,19.35
2023-09-23T16:47:24.818Z,18.72
2023-09-23T16:49:53.232Z,18.79
2023-09-23T16:52:21.737Z,18.86
2023-09-23T16:54:50.727Z,18.65
2023-09-23T16:57:20.817Z,18.77
2023-09-23T16:59:49.235Z,18.87
2023-09-23T17:02:19.875Z,19.34
2023-09-23T17:04:48.694Z,18.94
2023-09-23T17:07:17.432Z,18.71
2023-09-23T17:09:45.702Z,18.80
2023-09-23T17:12:16.426Z,19.06
2023-09-23T17:14:44.890Z,18.69
2023-09-23T17:17:13.751Z,18.62
2023-09-23T17:19:43.708Z,19.23
2023-09-23T17:22:12.368Z,18.67
2023-09-23T17:24:40.589Z,18.62
2023-09-23T17:27:09.169Z,18.53
2023-09-23T17:29:37.740Z,18.56
2023-09-23T17:32:06.820Z,18.50
2023-09-23T17:34:35.128Z,18.41
2023-09-23T17:37:05.299Z,18.97
2023-09-23T17:39:34.160Z,18.64
2023-09-23T17:42:02.789Z,18.56
2023-09-23T17:44:31.205Z,18.38
2023-09-23T17:46:59.926Z,18.47
2023-09-23T17:49:29.890Z,18.31
2023-09-23T17:51:58.609Z,18.43
2023-09-23T17:54:29.411Z,18.98
2023-09-23T17:56:58.047Z,18.43
2023-09-23T17:59:26.461Z,18.40
2023-09-23T18:01:55.197Z,18.40
2023-09-23T18:04:23.869Z,18.55
2023-09-23T18:06:52.544Z,18.50
2023-09-23T18:09:20.892Z,18.57
2023-09-23T18:11:52.389Z,18.99
2023-09-23T18:14:20.434Z,20.07
2023-09-23T18:16:49.067Z,18.34
2023-09-23T18:19:17.628Z,18.50
2023-09-23T18:21:46.350Z,18.44
2023-09-23T18:24:14.935Z,18.40
2023-09-23T18:26:43.764Z,18.39
2023-09-23T18:29:13.409Z,18.79
2023-09-23T18:31:45.152Z,18.29
2023-09-23T18:34:13.508Z,18.41
2023-09-23T18:36:42.127Z,18.37
2023-09-23T18:39:10.368Z,18.42
2023-09-23T18:41:39.092Z,18.43
2023-09-23T18:44:07.872Z,18.55
2023-09-23T18:46:37.938Z,19.07
2023-09-23T18:49:06.430Z,18.43
2023-09-23T18:51:35.846Z,18.32
2023-09-23T18:54:04.718Z,18.42
2023-09-23T18:56:33.568Z,18.25
2023-09-23T18:59:01.820Z,18.20
2023-09-23T19:01:30.789Z,18.24
2023-09-23T19:04:00.555Z,18.70
2023-09-23T19:06:29.334Z,18.46
2023-09-23T19:08:58.255Z,18.39
2023-09-23T19:11:26.917Z,18.34
2023-09-23T19:13:55.794Z,18.01
2023-09-23T19:16:25.179Z,18.27
2023-09-23T19:18:53.617Z,18.41
2023-09-23T19:21:23.532Z,18.92
2023-09-23T19:23:51.826Z,18.19
2023-09-23T19:26:20.593Z,18.50
2023-09-23T19:28:48.990Z,18.25
2023-09-23T19:31:20.043Z,18.20
2023-09-23T19:33:50.796Z,18.13
2023-09-23T19:36:19.536Z,18.51
2023-09-23T19:38:50.374Z,18.71
2023-09-23T19:41:19.514Z,18.28
2023-09-23T19:43:52.027Z,18.20
2023-09-23T19:46:23.140Z,18.34
2023-09-23T19:48:51.633Z,18.38
2023-09-23T19:51:25.938Z,19.28
2023-09-23T19:53:55.804Z,19.12
2023-09-23T19:56:24.462Z,18.48
2023-09-23T19:58:52.860Z,18.36
2023-09-23T20:01:23.853Z,18.51
2023-09-23T20:03:53.133Z,18.49
2023-09-23T20:06:22.096Z,18.52
2023-09-23T20:08:50.530Z,18.40
2023-09-23T20:11:21.246Z,19.04
2023-09-23T20:13:51.019Z,18.47
2023-09-23T20:16:20.575Z,18.57
2023-09-23T20:18:49.146Z,18.69
2023-09-23T20:21:17.891Z,18.57
2023-09-23T20:23:46.278Z,18.58
2023-09-23T20:26:15.233Z,18.27
2023-09-23T20:28:44.967Z,18.99
2023-09-23T20:31:16.705Z,18.27
2023-09-23T20:33:45.375Z,18.36
2023-09-23T20:36:14.496Z,18.16
2023-09-23T20:38:43.165Z,18.03
2023-09-23T20:41:11.952Z,18.04
2023-09-23T20:43:40.621Z,17.92
2023-09-23T20:46:12.606Z,18.51
2023-09-23T20:48:40.967Z,17.72
2023-09-23T20:51:10.380Z,17.56
2023-09-23T20:53:39.691Z,17.46
2023-09-23T20:56:09.835Z,17.81
2023-09-23T20:58:38.435Z,17.34
2023-09-23T21:01:07.099Z,17.32
2023-09-23T21:03:36.964Z,17.77
2023-09-23T21:06:06.939Z,17.28
2023-09-23T21:08:35.195Z,17.29
2023-09-23T21:11:03.671Z,17.17
2023-09-23T21:13:32.058Z,17.29
2023-09-23T21:16:01.642Z,17.63
2023-09-23T21:18:30.384Z,17.32
2023-09-23T21:21:00.523Z,17.99
2023-09-23T21:23:29.096Z,17.50
2023-09-23T21:25:57.791Z,17.41
2023-09-23T21:28:26.072Z,17.57
2023-09-23T21:30:54.759Z,17.45
2023-09-23T21:33:23.272Z,17.41
2023-09-23T21:35:51.946Z,17.32
2023-09-23T21:38:21.975Z,17.89
2023-09-23T21:40:50.611Z,17.52
2023-09-23T21:43:21.659Z,17.45
2023-09-23T21:45:51.517Z,17.58
2023-09-23T21:48:20.208Z,17.69
2023-09-23T21:50:56.676Z,18.54
2023-09-23T21:53:26.474Z,18.15
2023-09-23T21:55:58.089Z,18.33
2023-09-23T21:58:26.125Z,19.21
2023-09-23T22:00:58.085Z,17.71
2023-09-23T22:03:26.704Z,17.40
2023-09-23T22:05:55.923Z,17.48
2023-09-23T22:08:24.635Z,17.52
2023-09-23T22:10:55.750Z,18.03
2023-09-23T22:13:24.456Z,17.45
2023-09-23T22:15:53.322Z,17.46
2023-09-23T22:18:21.643Z,17.44
2023-09-23T22:20:52.448Z,17.60
2023-09-23T22:23:21.685Z,17.56
2023-09-23T22:25:50.753Z,17.52
2023-09-23T22:28:20.275Z,18.08
2023-09-23T22:30:52.084Z,17.61
2023-09-23T22:33:20.811Z,17.42
2023-09-23T22:35:49.653Z,17.48
2023-09-23T22:38:18.517Z,17.36
2023-09-23T22:40:47.860Z,17.49
2023-09-23T22:43:16.133Z,17.48
2023-09-23T22:45:46.079Z,17.96
2023-09-23T22:48:14.680Z,17.29
2023-09-23T22:50:45.622Z,17.30
2023-09-23T22:53:14.364Z,17.21
2023-09-23T22:55:42.875Z,17.03
2023-09-23T22:58:11.215Z,16.95
2023-09-23T23:00:40.447Z,16.88
2023-09-23T23:03:11.577Z,17.36
2023-09-23T23:05:41.030Z,16.81
2023-09-23T23:08:10.004Z,16.74
2023-09-23T23:10:38.668Z,16.70
2023-09-23T23:13:10.837Z,16.67
2023-09-23T23:15:40.474Z,16.75
2023-09-23T23:18:10.897Z,17.23
2023-09-23T23:20:40.010Z,16.64
2023-09-23T23:23:08.515Z,16.58
2023-09-23T23:25:38.310Z,17.00
2023-09-23T23:28:08.265Z,17.02
2023-09-23T23:30:38.385Z,16.79
2023-09-23T23:33:07.425Z,16.59
2023-09-23T23:35:39.476Z,17.16
2023-09-23T23:38:08.148Z,16.55
2023-09-23T23:40:36.814Z,16.43
2023-09-23T23:43:06.607Z,16.60
2023-09-23T23:45:35.571Z,16.51
2023-09-23T23:48:04.161Z,16.52
2023-09-23T23:50:32.926Z,16.59
2023-09-23T23:53:04.028Z,17.03
2023-09-23T23:55:32.532Z,18.25
2023-09-23T23:58:00.835Z,16.52
